Time;durP1;ratioP1;P1;durP2;ratioP2;P2;SDS_P1;SDS_P2;PMS_P1;PMS_P2;Temp;Humidity;BMP_temperature;BMP_pressure;BME280_temperature;BME280_humidity;BME280_pressure;Samples;Min_cycle;Max_cycle;Signal;HPM_P1;HPM_P2
2023/01/19 00:02:20;;;;;;;182.00;52.10;;;;;;;-128.00;-1.00;-1.00;101347;1303;1005482;-35
2023/01/19 00:04:46;;;;;;;114.40;36.70;;;;;;;-128.00;-1.00;-1.00;101280;1303;1003283;-38
2023/01/19 00:07:11;;;;;;;133.80;43.50;;;;;;;-128.00;-1.00;-1.00;101305;1303;1004085;-36
2023/01/19 00:09:39;;;;;;;288.00;82.80;;;;;;;-128.00;-1.00;-1.00;101403;1303;1002878;-33
2023/01/19 00:12:05;;;;;;;203.20;65.10;;;;;;;-128.00;-1.00;-1.00;101298;1303;1002894;-31
2023/01/19 00:14:31;;;;;;;218.90;62.60;;;;;;;-128.00;-1.00;-1.00;101274;1303;1004130;-32
2023/01/19 00:16:57;;;;;;;144.50;39.40;;;;;;;-128.00;-1.00;-1.00;101285;1303;1003942;-32
2023/01/19 00:19:22;;;;;;;133.40;34.50;;;;;;;-128.00;-1.00;-1.00;101403;1303;1004075;-36
2023/01/19 00:21:48;;;;;;;162.10;43.70;;;;;;;-128.00;-1.00;-1.00;101307;1303;1003370;-36
2023/01/19 00:24:14;;;;;;;138.90;41.80;;;;;;;-128.00;-1.00;-1.00;101442;1303;1004041;-36
2023/01/19 00:26:41;;;;;;;154.10;44.30;;;;;;;-128.00;-1.00;-1.00;101597;1303;1003407;-35
2023/01/19 00:29:10;;;;;;;156.10;42.50;;;;;;;-128.00;-1.00;-1.00;101383;1303;1003445;-36
2023/01/19 00:31:36;;;;;;;159.10;47.50;;;;;;;-128.00;-1.00;-1.00;101284;1303;1004192;-37
2023/01/19 00:34:02;;;;;;;148.20;41.00;;;;;;;-128.00;-1.00;-1.00;101411;1303;1003696;-32
2023/01/19 00:36:28;;;;;;;200.60;54.20;;;;;;;-128.00;-1.00;-1.00;101395;1303;1003267;-35
2023/01/19 00:38:54;;;;;;;151.30;43.20;;;;;;;-128.00;-1.00;-1.00;101327;1303;1003920;-33
2023/01/19 00:42:38;;;;;;;133.30;40.20;;;;;;;-128.00;-1.00;-1.00;101115;1303;1003095;-32
2023/01/19 00:44:05;;;;;;;142.30;40.90;;;;;;;-128.00;-1.00;-1.00;101447;1303;1002995;-31
2023/01/19 00:46:31;;;;;;;247.60;62.90;;;;;;;-128.00;-1.00;-1.00;101365;1303;1004871;-35
2023/01/19 00:48:56;;;;;;;251.50;60.80;;;;;;;-128.00;-1.00;-1.00;101415;1303;1003277;-37
2023/01/19 00:51:22;;;;;;;234.20;63.70;;;;;;;-128.00;-1.00;-1.00;101376;1303;1003580;-33
2023/01/19 00:53:48;;;;;;;186.00;50.10;;;;;;;-128.00;-1.00;-1.00;101364;1303;1003272;-39
2023/01/19 00:56:13;;;;;;;265.00;70.30;;;;;;;-128.00;-1.00;-1.00;101403;1303;1003902;-31
2023/01/19 00:58:39;;;;;;;236.90;56.50;;;;;;;-128.00;-1.00;-1.00;101322;1303;1003733;-31
2023/01/19 01:01:05;;;;;;;235.60;60.60;;;;;;;-128.00;-1.00;-1.00;101374;1303;1002988;-35
2023/01/19 01:03:31;;;;;;;284.60;72.00;;;;;;;-128.00;-1.00;-1.00;101332;1303;1003667;-30
2023/01/19 01:05:57;;;;;;;231.10;72.50;;;;;;;-128.00;-1.00;-1.00;101335;1303;1004432;-34
2023/01/19 01:08:23;;;;;;;187.30;58.40;;;;;;;-128.00;-1.00;-1.00;101415;1303;1003153;-33
2023/01/19 01:10:50;;;;;;;160.50;48.50;;;;;;;-128.00;-1.00;-1.00;101320;1298;1003259;-31
2023/01/19 01:13:16;;;;;;;112.50;35.20;;;;;;;-128.00;-1.00;-1.00;101424;1303;1002311;-35
2023/01/19 01:15:42;;;;;;;99.80;30.30;;;;;;;-128.00;-1.00;-1.00;101253;1303;1003155;-32
2023/01/19 01:18:08;;;;;;;130.80;40.70;;;;;;;-128.00;-1.00;-1.00;101327;1303;1002726;-35
2023/01/19 01:20:36;;;;;;;138.60;37.10;;;;;;;-128.00;-1.00;-1.00;101384;1303;1003516;-31
2023/01/19 01:23:02;;;;;;;130.80;40.00;;;;;;;-128.00;-1.00;-1.00;101281;1303;1003285;-35
2023/01/19 01:25:29;;;;;;;108.80;31.00;;;;;;;-128.00;-1.00;-1.00;101096;1301;1002908;-33
2023/01/19 01:27:55;;;;;;;148.10;42.00;;;;;;;-128.00;-1.00;-1.00;101306;1303;1003125;-34
2023/01/19 01:30:21;;;;;;;62.40;20.00;;;;;;;-128.00;-1.00;-1.00;101185;1303;1002653;-31
2023/01/19 01:32:47;;;;;;;110.80;27.70;;;;;;;-128.00;-1.00;-1.00;101312;1303;1003878;-30
2023/01/19 01:35:14;;;;;;;87.80;30.40;;;;;;;-128.00;-1.00;-1.00;101360;1303;1002831;-35
2023/01/19 01:37:41;;;;;;;104.00;30.60;;;;;;;-128.00;-1.00;-1.00;101318;1303;1002865;-31
2023/01/19 01:40:07;;;;;;;141.80;35.10;;;;;;;-128.00;-1.00;-1.00;101249;1303;1003582;-35
2023/01/19 01:42:33;;;;;;;140.80;38.20;;;;;;;-128.00;-1.00;-1.00;101452;1303;1004321;-34
2023/01/19 01:45:04;;;;;;;128.80;40.70;;;;;;;-128.00;-1.00;-1.00;101435;1303;1002920;-35
2023/01/19 01:47:38;;;;;;;101.30;34.60;;;;;;;-128.00;-1.00;-1.00;101228;1303;1003280;-35
2023/01/19 01:50:11;;;;;;;84.80;25.60;;;;;;;-128.00;-1.00;-1.00;101302;1303;1003633;-31
2023/01/19 01:52:40;;;;;;;57.40;21.70;;;;;;;-128.00;-1.00;-1.00;101335;1301;1004187;-35
2023/01/19 01:55:06;;;;;;;80.30;24.60;;;;;;;-128.00;-1.00;-1.00;101470;1303;1003046;-30
2023/01/19 01:57:34;;;;;;;76.10;27.60;;;;;;;-128.00;-1.00;-1.00;101323;1303;1004735;-34
2023/01/19 02:00:01;;;;;;;73.00;24.10;;;;;;;-128.00;-1.00;-1.00;101501;1303;1004377;-30
2023/01/19 02:05:14;;;;;;;59.00;20.20;;;;;;;-128.00;-1.00;-1.00;101353;1303;1003178;-35
2023/01/19 02:13:17;;;;;;;74.30;28.30;;;;;;;-128.00;-1.00;-1.00;101495;1303;1003240;-35
2023/01/19 02:15:43;;;;;;;69.80;25.30;;;;;;;-128.00;-1.00;-1.00;101329;1303;1004755;-30
2023/01/19 02:18:09;;;;;;;68.70;26.40;;;;;;;-128.00;-1.00;-1.00;101459;1303;1004184;-31
2023/01/19 02:20:36;;;;;;;68.30;28.20;;;;;;;-128.00;-1.00;-1.00;101362;1303;1003716;-30
2023/01/19 02:23:04;;;;;;;82.50;29.10;;;;;;;-128.00;-1.00;-1.00;101247;1303;1003194;-31
2023/01/19 02:25:29;;;;;;;62.10;26.00;;;;;;;-128.00;-1.00;-1.00;101349;1303;1003614;-30
2023/01/19 02:27:55;;;;;;;61.70;24.20;;;;;;;-128.00;-1.00;-1.00;101508;1303;1002685;-29
2023/01/19 02:30:21;;;;;;;74.90;24.00;;;;;;;-128.00;-1.00;-1.00;101220;1303;1003926;-35
2023/01/19 02:32:47;;;;;;;50.40;18.10;;;;;;;-128.00;-1.00;-1.00;101273;1303;1003287;-34
2023/01/19 02:35:13;;;;;;;53.60;23.30;;;;;;;-128.00;-1.00;-1.00;101100;1303;1004162;-30
2023/01/19 02:37:39;;;;;;;42.10;18.30;;;;;;;-128.00;-1.00;-1.00;101445;1303;1003557;-31
2023/01/19 02:40:09;;;;;;;59.10;24.50;;;;;;;-128.00;-1.00;-1.00;101298;1303;1003357;-31
2023/01/19 02:42:49;;;;;;;71.00;24.60;;;;;;;-128.00;-1.00;-1.00;101280;1303;1002988;-29
2023/01/19 02:45:18;;;;;;;68.20;25.20;;;;;;;-128.00;-1.00;-1.00;101326;1303;1003135;-34
2023/01/19 02:47:46;;;;;;;54.00;22.00;;;;;;;-128.00;-1.00;-1.00;101345;1303;1003052;-32
2023/01/19 02:50:37;;;;;;;72.70;30.60;;;;;;;-128.00;-1.00;-1.00;101435;1303;1002798;-35
2023/01/19 02:53:34;;;;;;;70.00;31.40;;;;;;;-128.00;-1.00;-1.00;101413;1303;1004960;-30
2023/01/19 02:56:23;;;;;;;70.00;27.80;;;;;;;-128.00;-1.00;-1.00;101359;1303;1005204;-30
2023/01/19 02:59:13;;;;;;;53.10;22.50;;;;;;;-128.00;-1.00;-1.00;101304;1303;1003389;-31
2023/01/19 03:01:50;;;;;;;47.40;18.40;;;;;;;-128.00;-1.00;-1.00;101308;1303;1003331;-34
2023/01/19 03:04:32;;;;;;;45.50;19.90;;;;;;;-128.00;-1.00;-1.00;101231;1303;1002884;-35
2023/01/19 03:07:09;;;;;;;36.80;15.90;;;;;;;-128.00;-1.00;-1.00;101466;1303;1004194;-31
2023/01/19 03:09:46;;;;;;;43.00;19.30;;;;;;;-128.00;-1.00;-1.00;101295;1303;1004104;-38
2023/01/19 03:12:26;;;;;;;67.30;23.90;;;;;;;-128.00;-1.00;-1.00;101381;1303;1005231;-34
2023/01/19 03:14:55;;;;;;;90.00;31.90;;;;;;;-128.00;-1.00;-1.00;101333;1303;1003003;-30
2023/01/19 03:17:21;;;;;;;60.20;23.20;;;;;;;-128.00;-1.00;-1.00;101445;1303;1003179;-35
2023/01/19 03:19:48;;;;;;;81.80;32.60;;;;;;;-128.00;-1.00;-1.00;101113;1303;1002815;-30
2023/01/19 03:22:21;;;;;;;58.30;26.10;;;;;;;-128.00;-1.00;-1.00;101474;1303;1004595;-34
2023/01/19 03:24:47;;;;;;;61.00;23.50;;;;;;;-128.00;-1.00;-1.00;101338;1303;1003786;-30
2023/01/19 03:27:24;;;;;;;77.60;29.20;;;;;;;-128.00;-1.00;-1.00;101194;1303;1003175;-35
2023/01/19 03:30:05;;;;;;;78.40;25.90;;;;;;;-128.00;-1.00;-1.00;101327;1303;1004431;-38
2023/01/19 03:32:35;;;;;;;57.10;22.10;;;;;;;-128.00;-1.00;-1.00;101467;1303;1002797;-35
2023/01/19 03:35:02;;;;;;;66.70;25.00;;;;;;;-128.00;-1.00;-1.00;101353;1303;1003259;-31
2023/01/19 03:37:28;;;;;;;60.50;23.40;;;;;;;-128.00;-1.00;-1.00;101463;1298;1002915;-31
2023/01/19 03:39:55;;;;;;;49.90;20.80;;;;;;;-128.00;-1.00;-1.00;101460;1300;1005083;-35
2023/01/19 03:42:21;;;;;;;113.00;39.50;;;;;;;-128.00;-1.00;-1.00;101262;1301;1002886;-31
2023/01/19 03:44:49;;;;;;;100.50;34.30;;;;;;;-128.00;-1.00;-1.00;101293;1304;1005106;-34
2023/01/19 03:47:15;;;;;;;75.40;24.20;;;;;;;-128.00;-1.00;-1.00;101203;1301;1002836;-35
2023/01/19 03:49:40;;;;;;;72.60;28.00;;;;;;;-128.00;-1.00;-1.00;101502;1303;1003474;-34
2023/01/19 03:52:06;;;;;;;59.50;25.20;;;;;;;-128.00;-1.00;-1.00;101469;1304;1003275;-35
2023/01/19 03:54:32;;;;;;;66.20;26.70;;;;;;;-128.00;-1.00;-1.00;101364;1303;1005051;-35
2023/01/19 03:56:58;;;;;;;70.60;24.50;;;;;;;-128.00;-1.00;-1.00;101335;1303;1004402;-32
2023/01/19 03:59:24;;;;;;;73.90;25.50;;;;;;;-128.00;-1.00;-1.00;101346;1303;1004731;-36
2023/01/19 04:01:50;;;;;;;42.40;17.40;;;;;;;-128.00;-1.00;-1.00;101391;1303;1003240;-31
2023/01/19 04:04:15;;;;;;;38.70;18.60;;;;;;;-128.00;-1.00;-1.00;101397;1303;1005628;-31
2023/01/19 04:06:42;;;;;;;46.40;18.70;;;;;;;-128.00;-1.00;-1.00;101340;1303;1003180;-31
2023/01/19 04:09:07;;;;;;;59.40;23.60;;;;;;;-128.00;-1.00;-1.00;101274;1303;1003212;-35
2023/01/19 04:11:33;;;;;;;63.50;24.40;;;;;;;-128.00;-1.00;-1.00;101307;1303;1004604;-32
2023/01/19 04:13:59;;;;;;;56.00;21.80;;;;;;;-128.00;-1.00;-1.00;101394;1303;1002377;-34
2023/01/19 04:16:24;;;;;;;73.50;26.20;;;;;;;-128.00;-1.00;-1.00;101359;1303;1004120;-34
2023/01/19 04:18:51;;;;;;;72.10;31.20;;;;;;;-128.00;-1.00;-1.00;101409;1301;1003065;-29
2023/01/19 04:21:19;;;;;;;50.80;21.00;;;;;;;-128.00;-1.00;-1.00;101374;1303;1003844;-39
2023/01/19 04:23:45;;;;;;;56.30;19.90;;;;;;;-128.00;-1.00;-1.00;101397;1296;1003273;-31
2023/01/19 04:26:10;;;;;;;46.20;20.40;;;;;;;-128.00;-1.00;-1.00;101272;1303;1003183;-31
2023/01/19 04:28:36;;;;;;;60.60;23.10;;;;;;;-128.00;-1.00;-1.00;101486;1303;1003109;-31
2023/01/19 04:31:03;;;;;;;64.40;21.60;;;;;;;-128.00;-1.00;-1.00;101320;1303;1003336;-31
2023/01/19 04:33:29;;;;;;;55.90;21.90;;;;;;;-128.00;-1.00;-1.00;101346;1303;1003216;-31
2023/01/19 04:35:55;;;;;;;75.50;22.10;;;;;;;-128.00;-1.00;-1.00;101451;1303;1003631;-31
2023/01/19 05:15:24;;;;;;;80.50;26.90;;;;;;;-26.32;79.80;78632.70;100098;1304;1005091;-30
2023/01/19 05:17:51;;;;;;;45.60;20.80;;;;;;;-128.00;-1.00;-1.00;100514;1298;1004835;-30
2023/01/19 05:20:17;;;;;;;50.50;21.70;;;;;;;-128.00;-1.00;-1.00;100864;1301;1004023;-35
2023/01/19 05:22:50;;;;;;;32.40;15.00;;;;;;;-128.00;-1.00;-1.00;100227;1305;1005330;-30
2023/01/19 05:25:16;;;;;;;36.80;17.80;;;;;;;-128.00;-1.00;-1.00;100914;1305;1004688;-35
2023/01/19 05:27:42;;;;;;;36.80;14.50;;;;;;;-128.00;-1.00;-1.00;100223;1298;1004451;-30
2023/01/19 05:30:08;;;;;;;60.70;22.00;;;;;;;-128.00;-1.00;-1.00;85182;1305;2002489;-36
2023/01/19 05:32:35;;;;;;;56.30;25.30;;;;;;;-128.00;-1.00;-1.00;87197;1305;2001923;-31
2023/01/19 05:35:01;;;;;;;39.40;19.00;;;;;;;-128.00;-1.00;-1.00;82321;1305;2002173;-32
2023/01/19 05:37:27;;;;;;;49.40;22.10;;;;;;;-128.00;-1.00;-1.00;84296;1305;3003050;-31
2023/01/19 05:39:53;;;;;;;58.00;24.30;;;;;;;-128.00;-1.00;-1.00;80926;1305;2004793;-32
2023/01/19 05:42:19;;;;;;;36.70;13.70;;;;;;;-128.00;-1.00;-1.00;99403;1305;1003848;-35
2023/01/19 05:44:45;;;;;;;33.10;14.90;;;;;;;-128.00;-1.00;-1.00;94358;1305;2004046;-30
2023/01/19 05:47:11;;;;;;;15.20;6.80;;;;;;;-128.00;-1.00;-1.00;95086;1305;2004035;-34
2023/01/19 05:49:36;;;;;;;36.10;13.00;;;;;;;-128.00;-1.00;-1.00;98762;1305;1004737;-30
2023/01/19 05:52:02;;;;;;;40.80;19.20;;;;;;;-128.00;-1.00;-1.00;101010;1302;1004850;-35
2023/01/19 05:54:28;;;;;;;24.80;11.20;;;;;;;-128.00;-1.00;-1.00;100910;1305;1004311;-31
2023/01/19 05:56:54;;;;;;;34.80;14.40;;;;;;;-128.00;-1.00;-1.00;100360;1282;1005024;-36
2023/01/19 05:59:22;;;;;;;42.70;22.40;;;;;;;-128.00;-1.00;-1.00;100980;1305;1004358;-30
2023/01/19 06:01:52;;;;;;;23.10;11.20;;;;;;;-128.00;-1.00;-1.00;101040;1305;1004786;-31
2023/01/19 06:04:19;;;;;;;47.40;18.40;;;;;;;-128.00;-1.00;-1.00;95913;1305;1003695;-35
2023/01/19 06:06:47;;;;;;;28.40;14.20;;;;;;;-128.00;-1.00;-1.00;99497;1305;2003377;-33
2023/01/19 06:09:13;;;;;;;35.30;15.00;;;;;;;-128.00;-1.00;-1.00;94548;1305;1005615;-32
2023/01/19 06:11:39;;;;;;;37.90;16.30;;;;;;;-128.00;-1.00;-1.00;98791;1305;1005184;-36
2023/01/19 06:14:05;;;;;;;19.80;8.90;;;;;;;-128.00;-1.00;-1.00;100899;1305;1004013;-31
2023/01/19 06:16:31;;;;;;;6.70;4.90;;;;;;;-128.00;-1.00;-1.00;100854;1305;1004820;-35
2023/01/19 06:18:57;;;;;;;11.70;6.00;;;;;;;-128.00;-1.00;-1.00;100917;1305;1004302;-35
2023/01/19 06:21:23;;;;;;;19.70;11.30;;;;;;;-128.00;-1.00;-1.00;100975;1305;1005136;-30
2023/01/19 06:23:49;;;;;;;24.30;11.10;;;;;;;-128.00;-1.00;-1.00;101048;1305;1004120;-35
2023/01/19 06:26:14;;;;;;;27.20;12.20;;;;;;;-128.00;-1.00;-1.00;100983;1305;1004242;-36
2023/01/19 06:28:40;;;;;;;23.80;12.50;;;;;;;-128.00;-1.00;-1.00;100934;1305;1004497;-35
2023/01/19 06:31:06;;;;;;;23.70;11.40;;;;;;;-128.00;-1.00;-1.00;100965;1305;1005069;-30
2023/01/19 06:33:32;;;;;;;18.50;10.90;;;;;;;-128.00;-1.00;-1.00;100955;1305;1004586;-36
2023/01/19 06:35:58;;;;;;;17.20;8.30;;;;;;;-128.00;-1.00;-1.00;100235;1305;1005283;-31
2023/01/19 06:38:24;;;;;;;16.70;9.30;;;;;;;-128.00;-1.00;-1.00;101038;1305;1005199;-35
2023/01/19 06:40:54;;;;;;;16.80;9.30;;;;;;;-128.00;-1.00;-1.00;98919;1305;1005149;-34
2023/01/19 06:43:20;;;;;;;15.70;9.90;;;;;;;-128.00;-1.00;-1.00;101132;1305;1003858;-35
2023/01/19 06:45:46;;;;;;;10.90;7.70;;;;;;;-128.00;-1.00;-1.00;101088;1305;1002557;-32
2023/01/19 06:48:12;;;;;;;14.10;8.50;;;;;;;-128.00;-1.00;-1.00;101192;1305;1003250;-30
2023/01/19 06:50:39;;;;;;;15.20;6.30;;;;;;;-128.00;-1.00;-1.00;101084;1305;1003620;-35
2023/01/19 06:53:05;;;;;;;15.90;9.40;;;;;;;-128.00;-1.00;-1.00;101139;1305;1002738;-33
2023/01/19 06:55:31;;;;;;;15.50;7.70;;;;;;;-128.00;-1.00;-1.00;101053;1305;1004413;-35
2023/01/19 06:57:57;;;;;;;12.20;6.50;;;;;;;-128.00;-1.00;-1.00;101080;1305;1003204;-36
2023/01/19 07:00:23;;;;;;;21.60;10.20;;;;;;;-128.00;-1.00;-1.00;101090;1298;1002756;-34
2023/01/19 07:02:49;;;;;;;6.40;4.70;;;;;;;-128.00;-1.00;-1.00;101173;1305;1003305;-31
2023/01/19 07:05:15;;;;;;;12.20;7.00;;;;;;;-128.00;-1.00;-1.00;101073;1305;1003223;-34
2023/01/19 07:07:42;;;;;;;14.90;9.70;;;;;;;-128.00;-1.00;-1.00;101144;1305;1003813;-31
2023/01/19 07:10:10;;;;;;;15.60;8.90;;;;;;;-128.00;-1.00;-1.00;101095;1305;1003566;-35
2023/01/19 07:12:37;;;;;;;13.80;9.10;;;;;;;-128.00;-1.00;-1.00;101043;1305;1003229;-31
2023/01/19 07:15:04;;;;;;;11.60;4.70;;;;;;;-128.00;-1.00;-1.00;101109;1305;1002847;-36
2023/01/19 07:17:30;;;;;;;21.40;10.60;;;;;;;-128.00;-1.00;-1.00;101158;1305;1003566;-38
2023/01/19 07:19:56;;;;;;;20.40;10.20;;;;;;;-128.00;-1.00;-1.00;101237;1305;1002752;-34
2023/01/19 07:22:22;;;;;;;22.60;11.20;;;;;;;-128.00;-1.00;-1.00;101062;1304;1003743;-34
2023/01/19 07:24:48;;;;;;;14.60;8.80;;;;;;;-128.00;-1.00;-1.00;101075;1305;1003093;-31
2023/01/19 07:27:15;;;;;;;28.50;12.60;;;;;;;-128.00;-1.00;-1.00;101156;1305;1003273;-35
2023/01/19 07:29:41;;;;;;;21.70;13.00;;;;;;;-128.00;-1.00;-1.00;101122;1305;1003540;-32
2023/01/19 07:32:07;;;;;;;24.80;12.10;;;;;;;-128.00;-1.00;-1.00;101007;1305;1004956;-32
2023/01/19 07:34:33;;;;;;;14.50;9.00;;;;;;;-128.00;-1.00;-1.00;101106;1305;1003283;-32
2023/01/19 07:37:03;;;;;;;12.90;7.50;;;;;;;-128.00;-1.00;-1.00;101082;1305;1004340;-36
2023/01/19 07:39:30;;;;;;;15.50;9.20;;;;;;;-128.00;-1.00;-1.00;101080;1305;1003196;-33
2023/01/19 07:41:56;;;;;;;12.40;7.10;;;;;;;-128.00;-1.00;-1.00;101182;1305;1005968;-36
2023/01/19 07:44:22;;;;;;;19.60;7.40;;;;;;;-128.00;-1.00;-1.00;101096;1305;1004023;-35
2023/01/19 07:46:49;;;;;;;13.00;8.20;;;;;;;-128.00;-1.00;-1.00;100948;1305;1003192;-32
2023/01/19 07:49:15;;;;;;;15.40;10.00;;;;;;;-128.00;-1.00;-1.00;101094;1301;1005232;-41
2023/01/19 07:51:42;;;;;;;14.80;8.90;;;;;;;-128.00;-1.00;-1.00;101157;1305;1004964;-35
2023/01/19 07:54:08;;;;;;;17.20;11.30;;;;;;;-128.00;-1.00;-1.00;101103;1305;1004088;-32
2023/01/19 07:56:34;;;;;;;22.00;13.10;;;;;;;-128.00;-1.00;-1.00;101094;1305;1004432;-36
2023/01/19 07:59:00;;;;;;;15.10;7.60;;;;;;;-128.00;-1.00;-1.00;101107;1305;1003415;-37
2023/01/19 08:01:26;;;;;;;14.20;7.90;;;;;;;-128.00;-1.00;-1.00;101229;1305;1003772;-32
2023/01/19 08:03:52;;;;;;;13.20;7.90;;;;;;;-128.00;-1.00;-1.00;101186;1305;1003516;-35
2023/01/19 08:06:20;;;;;;;10.30;7.30;;;;;;;-128.00;-1.00;-1.00;101037;1305;1003316;-32
2023/01/19 08:08:46;;;;;;;20.80;10.20;;;;;;;-128.00;-1.00;-1.00;101134;1305;1004920;-32
2023/01/19 08:11:13;;;;;;;24.50;10.90;;;;;;;-128.00;-1.00;-1.00;101123;1305;1003560;-35
2023/01/19 08:13:38;;;;;;;27.40;12.70;;;;;;;-128.00;-1.00;-1.00;101147;1305;1002663;-35
2023/01/19 08:16:05;;;;;;;33.40;16.40;;;;;;;-128.00;-1.00;-1.00;101171;1305;1002306;-33
2023/01/19 08:18:31;;;;;;;27.50;13.70;;;;;;;-128.00;-1.00;-1.00;101127;1305;1003167;-36
2023/01/19 08:21:00;;;;;;;18.60;11.30;;;;;;;-128.00;-1.00;-1.00;101221;1305;1002892;-35
2023/01/19 08:23:26;;;;;;;20.40;11.40;;;;;;;-128.00;-1.00;-1.00;101147;1305;1003603;-33
2023/01/19 08:25:52;;;;;;;22.40;13.30;;;;;;;-128.00;-1.00;-1.00;101195;1305;1003360;-36
2023/01/19 08:28:20;;;;;;;14.30;8.20;;;;;;;-128.00;-1.00;-1.00;101077;1305;1003727;-33
2023/01/19 08:30:52;;;;;;;19.50;12.40;;;;;;;-128.00;-1.00;-1.00;101057;1298;1002990;-36
2023/01/19 08:33:19;;;;;;;15.20;10.20;;;;;;;-128.00;-1.00;-1.00;101154;1305;1003958;-34
2023/01/19 08:35:50;;;;;;;19.80;9.00;;;;;;;-128.00;-1.00;-1.00;101034;1305;1002844;-35
2023/01/19 08:38:16;;;;;;;15.40;9.80;;;;;;;-128.00;-1.00;-1.00;101075;1305;1002965;-36
2023/01/19 08:40:42;;;;;;;19.70;10.90;;;;;;;-128.00;-1.00;-1.00;101078;1301;1003621;-36
2023/01/19 08:43:10;;;;;;;23.60;10.80;;;;;;;-128.00;-1.00;-1.00;101088;1305;1002973;-35
2023/01/19 08:45:40;;;;;;;21.60;11.60;;;;;;;-128.00;-1.00;-1.00;101082;1305;1003060;-38
2023/01/19 08:48:06;;;;;;;25.50;14.50;;;;;;;-128.00;-1.00;-1.00;101086;1305;1003050;-35
2023/01/19 08:50:32;;;;;;;14.30;7.40;;;;;;;-128.00;-1.00;-1.00;101060;1305;1004438;-34
2023/01/19 08:52:58;;;;;;;11.90;8.20;;;;;;;-128.00;-1.00;-1.00;101099;1305;1004014;-32
2023/01/19 08:55:24;;;;;;;13.20;7.20;;;;;;;-128.00;-1.00;-1.00;101103;1305;1002739;-32
2023/01/19 08:57:51;;;;;;;33.70;14.70;;;;;;;-128.00;-1.00;-1.00;101113;1305;1003457;-32
2023/01/19 09:00:18;;;;;;;19.30;12.30;;;;;;;-128.00;-1.00;-1.00;101131;1303;1002590;-33
2023/01/19 09:02:44;;;;;;;19.50;12.30;;;;;;;-128.00;-1.00;-1.00;101091;1305;1003011;-33
2023/01/19 09:05:10;;;;;;;14.20;9.40;;;;;;;-128.00;-1.00;-1.00;101204;1305;1003216;-36
2023/01/19 09:07:37;;;;;;;32.60;18.10;;;;;;;-128.00;-1.00;-1.00;101175;1305;1004404;-35
2023/01/19 09:10:03;;;;;;;38.40;15.50;;;;;;;-128.00;-1.00;-1.00;101122;1305;1004271;-35
2023/01/19 09:12:29;;;;;;;33.40;13.60;;;;;;;-128.00;-1.00;-1.00;101088;1305;1003531;-35
2023/01/19 09:14:55;;;;;;;33.20;15.20;;;;;;;-128.00;-1.00;-1.00;101095;1305;1003302;-31
2023/01/19 09:17:21;;;;;;;27.60;12.90;;;;;;;-128.00;-1.00;-1.00;101097;1305;1003286;-31
2023/01/19 09:19:49;;;;;;;17.50;9.40;;;;;;;-128.00;-1.00;-1.00;101178;1305;1003922;-32
2023/01/19 09:22:14;;;;;;;37.30;17.70;;;;;;;-128.00;-1.00;-1.00;101132;1305;1003301;-34
2023/01/19 09:24:40;;;;;;;26.80;13.40;;;;;;;-128.00;-1.00;-1.00;101189;1305;1003795;-35
2023/01/19 09:27:06;;;;;;;22.90;12.80;;;;;;;-128.00;-1.00;-1.00;101098;1305;1003320;-32
2023/01/19 09:29:31;;;;;;;30.00;11.30;;;;;;;-128.00;-1.00;-1.00;101068;1305;1003685;-33
2023/01/19 09:31:57;;;;;;;32.70;15.20;;;;;;;-128.00;-1.00;-1.00;101111;1305;1003961;-32
2023/01/19 09:34:24;;;;;;;22.10;10.90;;;;;;;-128.00;-1.00;-1.00;101032;1305;1003580;-32
2023/01/19 09:36:51;;;;;;;21.40;10.40;;;;;;;-128.00;-1.00;-1.00;101110;1305;1004271;-35
2023/01/19 09:39:17;;;;;;;24.80;14.60;;;;;;;-128.00;-1.00;-1.00;101132;1305;1003166;-35
2023/01/19 09:41:48;;;;;;;38.00;14.90;;;;;;;-128.00;-1.00;-1.00;101131;1301;1003570;-39
2023/01/19 09:44:31;;;;;;;46.60;19.40;;;;;;;-128.00;-1.00;-1.00;101119;1305;1002637;-33
2023/01/19 09:46:57;;;;;;;63.50;22.20;;;;;;;-128.00;-1.00;-1.00;101099;1305;1003037;-33
2023/01/19 09:49:30;;;;;;;39.70;18.30;;;;;;;-128.00;-1.00;-1.00;101093;1305;1002985;-35
2023/01/19 09:51:56;;;;;;;34.80;18.10;;;;;;;-128.00;-1.00;-1.00;101065;1304;1002611;-32
2023/01/19 09:54:30;;;;;;;35.90;16.90;;;;;;;-128.00;-1.00;-1.00;101036;1305;1003621;-32
2023/01/19 09:56:55;;;;;;;44.60;17.90;;;;;;;-128.00;-1.00;-1.00;101110;1305;1003015;-32
2023/01/19 09:59:29;;;;;;;35.30;16.60;;;;;;;-128.00;-1.00;-1.00;101025;1305;1003515;-34
2023/01/19 10:02:18;;;;;;;37.70;16.50;;;;;;;-128.00;-1.00;-1.00;101034;1299;1002495;-36
2023/01/19 10:05:05;;;;;;;32.30;16.60;;;;;;;-128.00;-1.00;-1.00;101056;1305;1003264;-31
2023/01/19 10:07:52;;;;;;;39.20;16.90;;;;;;;-128.00;-1.00;-1.00;101132;1305;1003383;-32
2023/01/19 10:10:26;;;;;;;28.10;14.00;;;;;;;-128.00;-1.00;-1.00;101054;1305;1002417;-34
2023/01/19 10:13:06;;;;;;;48.70;17.20;;;;;;;-128.00;-1.00;-1.00;101025;1305;1002927;-31
2023/01/19 10:15:45;;;;;;;39.00;16.20;;;;;;;-128.00;-1.00;-1.00;97977;1305;2002615;-32
2023/01/19 10:18:21;;;;;;;37.10;16.70;;;;;;;-128.00;-1.00;-1.00;100667;1305;1004721;-33
2023/01/19 10:20:49;;;;;;;43.70;18.70;;;;;;;-128.00;-1.00;-1.00;100752;1305;1004900;-35
2023/01/19 10:23:48;;;;;;;32.70;15.30;;;;;;;-128.00;-1.00;-1.00;100902;1305;1003588;-32
2023/01/19 10:26:26;;;;;;;33.20;14.20;;;;;;;-128.00;-1.00;-1.00;100910;1305;1004107;-33
2023/01/19 10:28:55;;;;;;;39.40;15.90;;;;;;;-128.00;-1.00;-1.00;100979;1301;1004817;-32
2023/01/19 10:31:22;;;;;;;34.80;13.70;;;;;;;-128.00;-1.00;-1.00;100995;1305;1003160;-35
2023/01/19 10:33:49;;;;;;;31.80;16.50;;;;;;;-128.00;-1.00;-1.00;100954;1305;1003919;-33
2023/01/19 10:36:25;;;;;;;33.20;16.00;;;;;;;-128.00;-1.00;-1.00;100935;1305;1003697;-36
2023/01/19 10:38:51;;;;;;;32.00;15.20;;;;;;;-128.00;-1.00;-1.00;100915;1305;1003948;-32
2023/01/19 10:41:19;;;;;;;44.20;19.50;;;;;;;-128.00;-1.00;-1.00;100993;1305;1004650;-32
2023/01/19 10:43:45;;;;;;;37.80;17.10;;;;;;;-128.00;-1.00;-1.00;100956;1301;1003862;-33
2023/01/19 10:46:30;;;;;;;47.40;20.50;;;;;;;-128.00;-1.00;-1.00;100903;1305;1005092;-35
2023/01/19 10:48:56;;;;;;;47.60;22.50;;;;;;;-128.00;-1.00;-1.00;100864;1305;1005253;-33
2023/01/19 10:51:22;;;;;;;27.20;13.20;;;;;;;-128.00;-1.00;-1.00;101030;1305;1004383;-32
2023/01/19 10:53:55;;;;;;;57.60;22.60;;;;;;;-128.00;-1.00;-1.00;100912;1305;1004485;-31
2023/01/19 10:56:23;;;;;;;55.30;16.90;;;;;;;-128.00;-1.00;-1.00;100920;1305;1005298;-33
2023/01/19 10:58:49;;;;;;;57.00;19.60;;;;;;;-128.00;-1.00;-1.00;100922;1305;1004962;-34
2023/01/19 11:01:20;;;;;;;39.30;15.80;;;;;;;-128.00;-1.00;-1.00;100903;1305;1004383;-32
2023/01/19 11:03:46;;;;;;;40.60;18.00;;;;;;;-128.00;-1.00;-1.00;100998;1305;1004561;-32
2023/01/19 11:45:11;;;;;;;46.70;17.20;;;;;;;0.54;100.00;98392.69;101676;1295;1003518;-34
2023/01/19 11:47:44;;;;;;;26.00;12.70;;;;;;;0.50;100.00;98383.91;104386;1302;512956;-36
2023/01/19 11:50:22;;;;;;;26.00;10.10;;;;;;;0.45;100.00;98379.34;105047;1302;23020;-35
2023/01/19 11:52:56;;;;;;;35.50;14.10;;;;;;;0.34;100.00;98376.06;105086;1298;22822;-36
2023/01/19 11:55:46;;;;;;;50.70;17.80;;;;;;;0.18;100.00;98378.59;105022;1302;24393;-32
2023/01/19 11:58:14;;;;;;;35.40;13.90;;;;;;;-102.33;19.20;19675.55;102217;1298;1002924;-34
2023/01/19 12:00:45;;;;;;;56.00;19.60;;;;;;;-128.00;-1.00;-1.00;100641;1302;1002979;-35
2023/01/19 12:03:20;;;;;;;39.50;15.30;;;;;;;-128.00;-1.00;-1.00;100723;1302;1003609;-32
2023/01/19 12:05:48;;;;;;;42.00;17.10;;;;;;;-128.00;-1.00;-1.00;99945;1302;1004541;-32
2023/01/19 12:08:16;;;;;;;34.60;13.90;;;;;;;-128.00;-1.00;-1.00;100733;1302;1003322;-33
2023/01/19 12:10:43;;;;;;;35.50;14.30;;;;;;;-128.00;-1.00;-1.00;101418;1302;1003484;-33
2023/01/19 12:13:18;;;;;;;32.00;12.00;;;;;;;-128.00;-1.00;-1.00;101296;1302;1003097;-35
2023/01/19 12:15:44;;;;;;;28.10;11.20;;;;;;;-128.00;-1.00;-1.00;99967;1295;1002652;-35
2023/01/19 12:18:17;;;;;;;25.20;11.10;;;;;;;-128.00;-1.00;-1.00;101350;1302;1003900;-34
2023/01/19 12:20:45;;;;;;;49.20;18.10;;;;;;;-128.00;-1.00;-1.00;100632;1302;1004305;-33
2023/01/19 12:23:27;;;;;;;30.30;13.20;;;;;;;-128.00;-1.00;-1.00;100614;1302;1003618;-32
2023/01/19 12:26:17;;;;;;;28.40;13.40;;;;;;;-128.00;-1.00;-1.00;96947;1302;2006211;-36
2023/01/19 12:28:46;;;;;;;20.60;8.50;;;;;;;-128.00;-1.00;-1.00;85441;1302;2003917;-35
2023/01/19 12:31:16;;;;;;;32.90;14.20;;;;;;;-128.00;-1.00;-1.00;96319;1302;1003498;-35
2023/01/19 12:33:42;;;;;;;36.00;16.00;;;;;;;-128.00;-1.00;-1.00;93293;1302;1003934;-31